sensor_id;sensor_type;location;lat;lon;timestamp;P1;durP1;ratioP1;P2;durP2;ratioP2
54953;SDS011;40855;51.072;5.402;2022-10-31T00:00:44;25.42;;;13.52;;
54953;SDS011;40855;51.072;5.402;2022-10-31T00:03:11;27.35;;;13.98;;
54953;SDS011;40855;51.072;5.402;2022-10-31T00:05:39;28.10;;;13.27;;
54953;SDS011;40855;51.072;5.402;2022-10-31T00:08:06;34.65;;;14.63;;
54953;SDS011;40855;51.072;5.402;2022-10-31T00:10:32;23.38;;;12.85;;
54953;SDS011;40855;51.072;5.402;2022-10-31T00:12:57;28.85;;;13.82;;
54953;SDS011;40855;51.072;5.402;2022-10-31T00:15:23;32.30;;;13.30;;
54953;SDS011;40855;51.072;5.402;2022-10-31T00:17:49;26.38;;;13.35;;
54953;SDS011;40855;51.072;5.402;2022-10-31T00:20:14;21.58;;;12.88;;
54953;SDS011;40855;51.072;5.402;2022-10-31T00:22:40;27.83;;;13.95;;
54953;SDS011;40855;51.072;5.402;2022-10-31T00:25:05;25.00;;;14.00;;
54953;SDS011;40855;51.072;5.402;2022-10-31T00:27:31;23.63;;;12.65;;
54953;SDS011;40855;51.072;5.402;2022-10-31T00:29:57;29.95;;;14.02;;
54953;SDS011;40855;51.072;5.402;2022-10-31T00:32:22;28.65;;;14.07;;
54953;SDS011;40855;51.072;5.402;2022-10-31T00:34:48;28.17;;;14.63;;
54953;SDS011;40855;51.072;5.402;2022-10-31T00:37:14;35.17;;;14.15;;
54953;SDS011;40855;51.072;5.402;2022-10-31T00:39:39;27.00;;;13.18;;
54953;SDS011;40855;51.072;5.402;2022-10-31T00:42:05;26.48;;;14.18;;
54953;SDS011;40855;51.072;5.402;2022-10-31T00:44:31;34.95;;;14.20;;
54953;SDS011;40855;51.072;5.402;2022-10-31T00:46:56;37.65;;;14.88;;
54953;SDS011;40855;51.072;5.402;2022-10-31T00:49:22;30.08;;;13.43;;
54953;SDS011;40855;51.072;5.402;2022-10-31T00:51:47;36.30;;;15.65;;
54953;SDS011;40855;51.072;5.402;2022-10-31T00:54:13;35.78;;;15.20;;
54953;SDS011;40855;51.072;5.402;2022-10-31T00:56:39;38.20;;;14.43;;
54953;SDS011;40855;51.072;5.402;2022-10-31T00:59:04;25.45;;;14.15;;
54953;SDS011;40855;51.072;5.402;2022-10-31T01:01:30;33.47;;;13.88;;
54953;SDS011;40855;51.072;5.402;2022-10-31T01:03:56;32.85;;;13.50;;
54953;SDS011;40855;51.072;5.402;2022-10-31T01:06:21;44.15;;;16.02;;
54953;SDS011;40855;51.072;5.402;2022-10-31T01:08:47;29.33;;;14.93;;
54953;SDS011;40855;51.072;5.402;2022-10-31T01:11:17;30.13;;;14.35;;
54953;SDS011;40855;51.072;5.402;2022-10-31T01:13:45;28.60;;;14.32;;
54953;SDS011;40855;51.072;5.402;2022-10-31T01:16:12;28.38;;;14.73;;
54953;SDS011;40855;51.072;5.402;2022-10-31T01:18:40;30.17;;;15.75;;
54953;SDS011;40855;51.072;5.402;2022-10-31T01:21:07;30.20;;;14.98;;
54953;SDS011;40855;51.072;5.402;2022-10-31T01:23:37;26.00;;;15.35;;
54953;SDS011;40855;51.072;5.402;2022-10-31T01:28:32;38.72;;;16.00;;
54953;SDS011;40855;51.072;5.402;2022-10-31T01:31:00;31.63;;;16.13;;
54953;SDS011;40855;51.072;5.402;2022-10-31T01:33:30;34.72;;;17.00;;
54953;SDS011;40855;51.072;5.402;2022-10-31T01:35:55;28.02;;;15.57;;
54953;SDS011;40855;51.072;5.402;2022-10-31T01:38:21;26.70;;;15.38;;
54953;SDS011;40855;51.072;5.402;2022-10-31T01:40:48;28.55;;;13.52;;
54953;SDS011;40855;51.072;5.402;2022-10-31T01:43:13;44.22;;;14.98;;
54953;SDS011;40855;51.072;5.402;2022-10-31T01:45:40;24.38;;;12.90;;
54953;SDS011;40855;51.072;5.402;2022-10-31T01:48:11;41.55;;;18.23;;
54953;SDS011;40855;51.072;5.402;2022-10-31T01:50:39;25.70;;;14.38;;
54953;SDS011;40855;51.072;5.402;2022-10-31T01:53:07;24.98;;;14.82;;
54953;SDS011;40855;51.072;5.402;2022-10-31T01:55:34;26.60;;;15.27;;
54953;SDS011;40855;51.072;5.402;2022-10-31T01:58:07;26.77;;;15.05;;
54953;SDS011;40855;51.072;5.402;2022-10-31T02:00:44;29.42;;;15.38;;
54953;SDS011;40855;51.072;5.402;2022-10-31T02:03:13;26.15;;;13.70;;
54953;SDS011;40855;51.072;5.402;2022-10-31T02:05:39;17.48;;;11.70;;
54953;SDS011;40855;51.072;5.402;2022-10-31T02:08:13;14.23;;;9.73;;
54953;SDS011;40855;51.072;5.402;2022-10-31T02:10:44;25.58;;;14.63;;
54953;SDS011;40855;51.072;5.402;2022-10-31T02:13:10;18.73;;;12.45;;
54953;SDS011;40855;51.072;5.402;2022-10-31T02:15:38;16.90;;;11.13;;
54953;SDS011;40855;51.072;5.402;2022-10-31T02:18:05;20.50;;;12.20;;
54953;SDS011;40855;51.072;5.402;2022-10-31T02:20:32;53.45;;;12.52;;
54953;SDS011;40855;51.072;5.402;2022-10-31T02:28:56;23.55;;;11.55;;
54953;SDS011;40855;51.072;5.402;2022-10-31T02:31:46;16.85;;;10.65;;
54953;SDS011;40855;51.072;5.402;2022-10-31T02:39:40;24.98;;;12.05;;
54953;SDS011;40855;51.072;5.402;2022-10-31T02:42:39;18.70;;;11.70;;
54953;SDS011;40855;51.072;5.402;2022-10-31T02:45:13;15.83;;;10.77;;
54953;SDS011;40855;51.072;5.402;2022-10-31T02:47:45;26.58;;;12.50;;
54953;SDS011;40855;51.072;5.402;2022-10-31T02:50:23;17.60;;;7.47;;
54953;SDS011;40855;51.072;5.402;2022-10-31T02:52:56;14.85;;;9.10;;
54953;SDS011;40855;51.072;5.402;2022-10-31T02:57:51;18.77;;;11.50;;
54953;SDS011;40855;51.072;5.402;2022-10-31T03:00:20;19.80;;;12.30;;
54953;SDS011;40855;51.072;5.402;2022-10-31T03:10:53;10.02;;;8.80;;
54953;SDS011;40855;51.072;5.402;2022-10-31T03:16:38;24.38;;;14.52;;
54953;SDS011;40855;51.072;5.402;2022-10-31T03:19:06;15.52;;;12.13;;
54953;SDS011;40855;51.072;5.402;2022-10-31T03:21:38;17.83;;;11.80;;
54953;SDS011;40855;51.072;5.402;2022-10-31T03:24:11;17.35;;;12.18;;
54953;SDS011;40855;51.072;5.402;2022-10-31T03:26:39;26.55;;;12.73;;
54953;SDS011;40855;51.072;5.402;2022-10-31T03:29:10;20.05;;;12.38;;
54953;SDS011;40855;51.072;5.402;2022-10-31T03:31:40;17.70;;;11.85;;
54953;SDS011;40855;51.072;5.402;2022-10-31T03:34:26;16.20;;;9.73;;
54953;SDS011;40855;51.072;5.402;2022-10-31T03:36:55;15.90;;;9.57;;
54953;SDS011;40855;51.072;5.402;2022-10-31T03:39:24;59.97;;;15.13;;
54953;SDS011;40855;51.072;5.402;2022-10-31T03:41:57;59.20;;;36.30;;
54953;SDS011;40855;51.072;5.402;2022-10-31T03:44:30;40.20;;;24.77;;
54953;SDS011;40855;51.072;5.402;2022-10-31T03:46:57;25.30;;;19.30;;
54953;SDS011;40855;51.072;5.402;2022-10-31T03:49:23;42.60;;;25.65;;
54953;SDS011;40855;51.072;5.402;2022-10-31T03:51:51;34.28;;;24.00;;
54953;SDS011;40855;51.072;5.402;2022-10-31T03:54:34;37.15;;;25.10;;
54953;SDS011;40855;51.072;5.402;2022-10-31T04:00:13;32.63;;;21.23;;
54953;SDS011;40855;51.072;5.402;2022-10-31T04:02:41;39.90;;;20.05;;
54953;SDS011;40855;51.072;5.402;2022-10-31T04:05:12;25.23;;;16.20;;
54953;SDS011;40855;51.072;5.402;2022-10-31T04:07:41;26.30;;;14.88;;
54953;SDS011;40855;51.072;5.402;2022-10-31T04:10:11;22.00;;;14.68;;
54953;SDS011;40855;51.072;5.402;2022-10-31T04:12:39;20.00;;;15.45;;
54953;SDS011;40855;51.072;5.402;2022-10-31T04:15:10;20.42;;;14.32;;
54953;SDS011;40855;51.072;5.402;2022-10-31T04:17:37;24.33;;;13.90;;
54953;SDS011;40855;51.072;5.402;2022-10-31T04:20:06;24.65;;;15.65;;
54953;SDS011;40855;51.072;5.402;2022-10-31T04:22:32;24.55;;;14.70;;
54953;SDS011;40855;51.072;5.402;2022-10-31T04:24:58;26.05;;;14.32;;
54953;SDS011;40855;51.072;5.402;2022-10-31T04:27:23;20.40;;;13.25;;
54953;SDS011;40855;51.072;5.402;2022-10-31T04:29:49;19.25;;;13.57;;
54953;SDS011;40855;51.072;5.402;2022-10-31T04:32:15;23.77;;;15.48;;
54953;SDS011;40855;51.072;5.402;2022-10-31T04:34:40;24.63;;;15.00;;
54953;SDS011;40855;51.072;5.402;2022-10-31T04:37:06;23.27;;;14.38;;
54953;SDS011;40855;51.072;5.402;2022-10-31T04:39:32;20.20;;;14.23;;
54953;SDS011;40855;51.072;5.402;2022-10-31T04:41:57;23.25;;;14.18;;
54953;SDS011;40855;51.072;5.402;2022-10-31T04:44:23;16.85;;;12.80;;
54953;SDS011;40855;51.072;5.402;2022-10-31T04:46:48;20.40;;;12.90;;
54953;SDS011;40855;51.072;5.402;2022-10-31T04:49:14;16.80;;;11.65;;
54953;SDS011;40855;51.072;5.402;2022-10-31T04:51:40;11.07;;;8.77;;
54953;SDS011;40855;51.072;5.402;2022-10-31T04:54:05;13.15;;;9.60;;
54953;SDS011;40855;51.072;5.402;2022-10-31T04:56:31;8.18;;;7.35;;
54953;SDS011;40855;51.072;5.402;2022-10-31T04:58:57;12.07;;;5.72;;
54953;SDS011;40855;51.072;5.402;2022-10-31T05:01:22;5.75;;;5.25;;
54953;SDS011;40855;51.072;5.402;2022-10-31T05:03:48;9.32;;;7.57;;
54953;SDS011;40855;51.072;5.402;2022-10-31T05:06:14;10.45;;;8.55;;
54953;SDS011;40855;51.072;5.402;2022-10-31T05:08:41;18.20;;;10.68;;
54953;SDS011;40855;51.072;5.402;2022-10-31T05:11:07;21.50;;;9.85;;
54953;SDS011;40855;51.072;5.402;2022-10-31T05:13:33;208.10;;;13.63;;
54953;SDS011;40855;51.072;5.402;2022-10-31T05:15:58;16.58;;;11.05;;
54953;SDS011;40855;51.072;5.402;2022-10-31T05:18:24;19.88;;;11.52;;
54953;SDS011;40855;51.072;5.402;2022-10-31T05:20:50;19.70;;;10.55;;
54953;SDS011;40855;51.072;5.402;2022-10-31T05:23:15;17.40;;;11.07;;
54953;SDS011;40855;51.072;5.402;2022-10-31T05:25:41;18.90;;;11.10;;
54953;SDS011;40855;51.072;5.402;2022-10-31T05:28:06;19.88;;;10.38;;
54953;SDS011;40855;51.072;5.402;2022-10-31T05:30:33;17.85;;;10.23;;
54953;SDS011;40855;51.072;5.402;2022-10-31T05:32:59;17.13;;;11.27;;
54953;SDS011;40855;51.072;5.402;2022-10-31T05:35:26;26.48;;;12.80;;
54953;SDS011;40855;51.072;5.402;2022-10-31T05:37:53;24.42;;;11.95;;
54953;SDS011;40855;51.072;5.402;2022-10-31T05:40:19;21.48;;;12.15;;
54953;SDS011;40855;51.072;5.402;2022-10-31T05:42:45;9.43;;;6.78;;
54953;SDS011;40855;51.072;5.402;2022-10-31T05:45:12;13.38;;;8.70;;
54953;SDS011;40855;51.072;5.402;2022-10-31T05:47:39;58.90;;;9.77;;
54953;SDS011;40855;51.072;5.402;2022-10-31T05:50:05;34.25;;;9.50;;
54953;SDS011;40855;51.072;5.402;2022-10-31T05:52:32;11.38;;;9.30;;
54953;SDS011;40855;51.072;5.402;2022-10-31T05:54:58;14.20;;;8.77;;
54953;SDS011;40855;51.072;5.402;2022-10-31T05:57:24;18.98;;;8.73;;
54953;SDS011;40855;51.072;5.402;2022-10-31T05:59:49;17.60;;;8.35;;
54953;SDS011;40855;51.072;5.402;2022-10-31T06:02:18;14.55;;;8.05;;
54953;SDS011;40855;51.072;5.402;2022-10-31T06:04:44;14.35;;;9.27;;
54953;SDS011;40855;51.072;5.402;2022-10-31T06:07:10;13.73;;;8.32;;
54953;SDS011;40855;51.072;5.402;2022-10-31T06:09:35;15.55;;;8.65;;
54953;SDS011;40855;51.072;5.402;2022-10-31T06:12:01;11.18;;;6.75;;
54953;SDS011;40855;51.072;5.402;2022-10-31T06:14:27;9.68;;;6.57;;
54953;SDS011;40855;51.072;5.402;2022-10-31T06:16:53;6.85;;;6.25;;
54953;SDS011;40855;51.072;5.402;2022-10-31T06:19:20;8.05;;;6.10;;
54953;SDS011;40855;51.072;5.402;2022-10-31T06:21:45;9.15;;;8.25;;
54953;SDS011;40855;51.072;5.402;2022-10-31T06:24:11;10.25;;;7.97;;
54953;SDS011;40855;51.072;5.402;2022-10-31T06:26:36;12.48;;;7.93;;
54953;SDS011;40855;51.072;5.402;2022-10-31T06:29:02;16.20;;;9.77;;
54953;SDS011;40855;51.072;5.402;2022-10-31T06:31:28;14.95;;;8.73;;
54953;SDS011;40855;51.072;5.402;2022-10-31T06:33:54;16.30;;;10.13;;
54953;SDS011;40855;51.072;5.402;2022-10-31T06:36:19;13.18;;;9.45;;
54953;SDS011;40855;51.072;5.402;2022-10-31T06:38:45;16.17;;;8.57;;
54953;SDS011;40855;51.072;5.402;2022-10-31T06:41:10;36.72;;;22.52;;
54953;SDS011;40855;51.072;5.402;2022-10-31T06:43:36;46.63;;;27.95;;
54953;SDS011;40855;51.072;5.402;2022-10-31T06:46:02;40.65;;;22.65;;
54953;SDS011;40855;51.072;5.402;2022-10-31T06:48:29;25.70;;;12.10;;
54953;SDS011;40855;51.072;5.402;2022-10-31T06:50:57;21.30;;;15.15;;
54953;SDS011;40855;51.072;5.402;2022-10-31T06:53:26;36.30;;;17.90;;
54953;SDS011;40855;51.072;5.402;2022-10-31T06:55:54;31.92;;;18.85;;
54953;SDS011;40855;51.072;5.402;2022-10-31T06:58:20;28.42;;;19.65;;
54953;SDS011;40855;51.072;5.402;2022-10-31T07:00:46;19.33;;;13.65;;
54953;SDS011;40855;51.072;5.402;2022-10-31T07:03:12;14.50;;;8.85;;
54953;SDS011;40855;51.072;5.402;2022-10-31T07:05:39;13.98;;;7.85;;
54953;SDS011;40855;51.072;5.402;2022-10-31T07:08:06;12.88;;;8.05;;
54953;SDS011;40855;51.072;5.402;2022-10-31T07:10:34;15.43;;;9.45;;
54953;SDS011;40855;51.072;5.402;2022-10-31T07:13:02;19.88;;;13.57;;
54953;SDS011;40855;51.072;5.402;2022-10-31T07:15:32;27.98;;;15.82;;
54953;SDS011;40855;51.072;5.402;2022-10-31T07:18:00;35.33;;;23.98;;
54953;SDS011;40855;51.072;5.402;2022-10-31T07:20:27;29.58;;;18.17;;
54953;SDS011;40855;51.072;5.402;2022-10-31T07:22:53;23.38;;;12.93;;
54953;SDS011;40855;51.072;5.402;2022-10-31T07:25:19;23.92;;;15.57;;
54953;SDS011;40855;51.072;5.402;2022-10-31T07:27:45;36.47;;;20.17;;
54953;SDS011;40855;51.072;5.402;2022-10-31T07:30:11;36.35;;;22.23;;
54953;SDS011;40855;51.072;5.402;2022-10-31T07:35:08;25.63;;;15.75;;
54953;SDS011;40855;51.072;5.402;2022-10-31T07:37:35;31.58;;;14.75;;
54953;SDS011;40855;51.072;5.402;2022-10-31T07:40:02;21.83;;;11.75;;
54953;SDS011;40855;51.072;5.402;2022-10-31T07:42:28;18.08;;;10.93;;
54953;SDS011;40855;51.072;5.402;2022-10-31T07:44:54;28.90;;;11.80;;
54953;SDS011;40855;51.072;5.402;2022-10-31T07:47:20;38.22;;;22.52;;
54953;SDS011;40855;51.072;5.402;2022-10-31T07:49:45;45.80;;;25.45;;
54953;SDS011;40855;51.072;5.402;2022-10-31T07:52:11;33.63;;;19.73;;
54953;SDS011;40855;51.072;5.402;2022-10-31T07:54:37;34.42;;;17.60;;
54953;SDS011;40855;51.072;5.402;2022-10-31T07:57:02;35.45;;;20.70;;
54953;SDS011;40855;51.072;5.402;2022-10-31T07:59:28;32.30;;;20.17;;
54953;SDS011;40855;51.072;5.402;2022-10-31T08:01:54;34.15;;;18.70;;
54953;SDS011;40855;51.072;5.402;2022-10-31T08:04:19;31.63;;;18.67;;
54953;SDS011;40855;51.072;5.402;2022-10-31T08:06:45;32.63;;;18.75;;
54953;SDS011;40855;51.072;5.402;2022-10-31T08:09:13;39.38;;;19.50;;
54953;SDS011;40855;51.072;5.402;2022-10-31T08:11:38;31.35;;;19.20;;
54953;SDS011;40855;51.072;5.402;2022-10-31T08:14:04;36.85;;;18.55;;
54953;SDS011;40855;51.072;5.402;2022-10-31T08:16:30;41.45;;;21.02;;
54953;SDS011;40855;51.072;5.402;2022-10-31T08:18:55;41.60;;;21.00;;
54953;SDS011;40855;51.072;5.402;2022-10-31T08:21:21;52.45;;;28.77;;
54953;SDS011;40855;51.072;5.402;2022-10-31T08:23:47;34.80;;;19.88;;
54953;SDS011;40855;51.072;5.402;2022-10-31T08:26:13;31.25;;;18.80;;
54953;SDS011;40855;51.072;5.402;2022-10-31T08:28:38;37.45;;;21.85;;
54953;SDS011;40855;51.072;5.402;2022-10-31T08:31:04;42.03;;;21.75;;
54953;SDS011;40855;51.072;5.402;2022-10-31T08:33:30;39.60;;;21.80;;
54953;SDS011;40855;51.072;5.402;2022-10-31T08:35:59;49.10;;;22.88;;
54953;SDS011;40855;51.072;5.402;2022-10-31T08:38:25;49.35;;;25.73;;
54953;SDS011;40855;51.072;5.402;2022-10-31T08:40:50;54.50;;;26.35;;
54953;SDS011;40855;51.072;5.402;2022-10-31T08:43:16;56.33;;;27.80;;
54953;SDS011;40855;51.072;5.402;2022-10-31T08:45:44;45.80;;;23.77;;
54953;SDS011;40855;51.072;5.402;2022-10-31T08:48:13;44.75;;;23.85;;
54953;SDS011;40855;51.072;5.402;2022-10-31T08:50:40;47.65;;;23.17;;
54953;SDS011;40855;51.072;5.402;2022-10-31T08:53:07;59.45;;;23.33;;
54953;SDS011;40855;51.072;5.402;2022-10-31T08:55:42;47.47;;;24.02;;
54953;SDS011;40855;51.072;5.402;2022-10-31T08:58:11;55.83;;;25.73;;
54953;SDS011;40855;51.072;5.402;2022-10-31T09:00:39;55.60;;;23.98;;
54953;SDS011;40855;51.072;5.402;2022-10-31T09:03:06;54.75;;;25.17;;
54953;SDS011;40855;51.072;5.402;2022-10-31T09:05:36;53.78;;;26.85;;
54953;SDS011;40855;51.072;5.402;2022-10-31T09:08:03;56.40;;;26.90;;
54953;SDS011;40855;51.072;5.402;2022-10-31T09:10:31;52.33;;;27.95;;
54953;SDS011;40855;51.072;5.402;2022-10-31T09:12:59;62.55;;;29.23;;
54953;SDS011;40855;51.072;5.402;2022-10-31T09:15:34;51.70;;;28.15;;
54953;SDS011;40855;51.072;5.402;2022-10-31T09:18:01;66.80;;;31.38;;
54953;SDS011;40855;51.072;5.402;2022-10-31T09:20:27;70.07;;;31.13;;
54953;SDS011;40855;51.072;5.402;2022-10-31T09:23:00;68.80;;;32.95;;
54953;SDS011;40855;51.072;5.402;2022-10-31T09:25:46;69.28;;;32.28;;
54953;SDS011;40855;51.072;5.402;2022-10-31T09:28:13;76.80;;;33.30;;
54953;SDS011;40855;51.072;5.402;2022-10-31T09:30:41;73.63;;;34.50;;
54953;SDS011;40855;51.072;5.402;2022-10-31T09:33:09;73.72;;;34.63;;
54953;SDS011;40855;51.072;5.402;2022-10-31T09:35:36;74.97;;;33.83;;
54953;SDS011;40855;51.072;5.402;2022-10-31T09:38:09;81.35;;;36.20;;
54953;SDS011;40855;51.072;5.402;2022-10-31T09:40:40;79.07;;;36.33;;
54953;SDS011;40855;51.072;5.402;2022-10-31T09:50:51;67.57;;;32.70;;
54953;SDS011;40855;51.072;5.402;2022-10-31T09:55:48;67.43;;;31.45;;
54953;SDS011;40855;51.072;5.402;2022-10-31T09:58:20;70.82;;;30.90;;
54953;SDS011;40855;51.072;5.402;2022-10-31T10:00:49;62.22;;;29.42;;
54953;SDS011;40855;51.072;5.402;2022-10-31T10:05:43;61.72;;;29.67;;
54953;SDS011;40855;51.072;5.402;2022-10-31T10:08:18;61.17;;;27.83;;
54953;SDS011;40855;51.072;5.402;2022-10-31T10:10:48;72.97;;;32.33;;
54953;SDS011;40855;51.072;5.402;2022-10-31T10:13:36;65.18;;;30.27;;
54953;SDS011;40855;51.072;5.402;2022-10-31T10:19:24;71.63;;;29.05;;
54953;SDS011;40855;51.072;5.402;2022-10-31T10:27:11;64.88;;;28.70;;
54953;SDS011;40855;51.072;5.402;2022-10-31T10:29:42;62.55;;;28.23;;
54953;SDS011;40855;51.072;5.402;2022-10-31T10:32:22;54.05;;;26.05;;
54953;SDS011;40855;51.072;5.402;2022-10-31T10:34:51;53.70;;;26.17;;
54953;SDS011;40855;51.072;5.402;2022-10-31T10:37:40;50.92;;;24.48;;
54953;SDS011;40855;51.072;5.402;2022-10-31T10:40:20;50.03;;;23.27;;
54953;SDS011;40855;51.072;5.402;2022-10-31T10:46:40;51.47;;;22.88;;
54953;SDS011;40855;51.072;5.402;2022-10-31T10:51:39;47.75;;;22.13;;
54953;SDS011;40855;51.072;5.402;2022-10-31T10:54:18;46.15;;;20.40;;
54953;SDS011;40855;51.072;5.402;2022-10-31T10:57:21;43.88;;;20.20;;
54953;SDS011;40855;51.072;5.402;2022-10-31T11:03:14;38.53;;;19.05;;
54953;SDS011;40855;51.072;5.402;2022-10-31T11:05:47;37.45;;;19.15;;
54953;SDS011;40855;51.072;5.402;2022-10-31T11:08:30;36.15;;;18.00;;
54953;SDS011;40855;51.072;5.402;2022-10-31T11:11:04;43.38;;;18.63;;
54953;SDS011;40855;51.072;5.402;2022-10-31T11:13:47;39.22;;;19.23;;
54953;SDS011;40855;51.072;5.402;2022-10-31T11:16:26;47.85;;;19.30;;
54953;SDS011;40855;51.072;5.402;2022-10-31T11:21:41;41.33;;;18.45;;
54953;SDS011;40855;51.072;5.402;2022-10-31T11:26:36;42.65;;;18.23;;
54953;SDS011;40855;51.072;5.402;2022-10-31T11:29:10;44.35;;;19.50;;
54953;SDS011;40855;51.072;5.402;2022-10-31T11:31:42;42.88;;;20.10;;
54953;SDS011;40855;51.072;5.402;2022-10-31T11:34:15;44.88;;;20.00;;
54953;SDS011;40855;51.072;5.402;2022-10-31T11:36:46;43.58;;;19.27;;
54953;SDS011;40855;51.072;5.402;2022-10-31T11:39:17;40.85;;;19.90;;
54953;SDS011;40855;51.072;5.402;2022-10-31T11:41:46;44.05;;;19.50;;
54953;SDS011;40855;51.072;5.402;2022-10-31T11:44:14;41.97;;;22.40;;
54953;SDS011;40855;51.072;5.402;2022-10-31T11:46:44;48.08;;;21.27;;
54953;SDS011;40855;51.072;5.402;2022-10-31T11:49:18;43.72;;;20.00;;
54953;SDS011;40855;51.072;5.402;2022-10-31T11:51:51;34.83;;;18.77;;
54953;SDS011;40855;51.072;5.402;2022-10-31T11:54:23;36.67;;;19.40;;
54953;SDS011;40855;51.072;5.402;2022-10-31T11:56:54;43.83;;;20.23;;
54953;SDS011;40855;51.072;5.402;2022-10-31T11:59:29;34.35;;;19.05;;
54953;SDS011;40855;51.072;5.402;2022-10-31T12:01:57;48.67;;;19.67;;
54953;SDS011;40855;51.072;5.402;2022-10-31T12:04:38;50.67;;;20.27;;
54953;SDS011;40855;51.072;5.402;2022-10-31T12:07:08;46.22;;;19.52;;
54953;SDS011;40855;51.072;5.402;2022-10-31T12:09:35;38.72;;;20.33;;
54953;SDS011;40855;51.072;5.402;2022-10-31T12:12:21;40.42;;;19.90;;
54953;SDS011;40855;51.072;5.402;2022-10-31T12:22:55;48.92;;;20.83;;
54953;SDS011;40855;51.072;5.402;2022-10-31T12:25:42;48.35;;;20.50;;
54953;SDS011;40855;51.072;5.402;2022-10-31T12:33:53;44.08;;;22.20;;
54953;SDS011;40855;51.072;5.402;2022-10-31T12:36:43;43.30;;;20.83;;
54953;SDS011;40855;51.072;5.402;2022-10-31T12:42:37;53.80;;;22.77;;
54953;SDS011;40855;51.072;5.402;2022-10-31T12:45:30;48.42;;;22.10;;
54953;SDS011;40855;51.072;5.402;2022-10-31T12:53:35;49.15;;;23.08;;
54953;SDS011;40855;51.072;5.402;2022-10-31T13:02:10;43.97;;;22.70;;
54953;SDS011;40855;51.072;5.402;2022-10-31T13:06:58;42.97;;;22.02;;
54953;SDS011;40855;51.072;5.402;2022-10-31T13:09:29;43.90;;;22.08;;
54953;SDS011;40855;51.072;5.402;2022-10-31T13:12:12;46.33;;;23.02;;
54953;SDS011;40855;51.072;5.402;2022-10-31T13:14:49;45.92;;;22.70;;
54953;SDS011;40855;51.072;5.402;2022-10-31T13:17:30;47.97;;;22.40;;
54953;SDS011;40855;51.072;5.402;2022-10-31T13:20:43;42.13;;;22.92;;
54953;SDS011;40855;51.072;5.402;2022-10-31T13:22:54;45.05;;;21.27;;
54953;SDS011;40855;51.072;5.402;2022-10-31T13:25:28;48.08;;;21.38;;
54953;SDS011;40855;51.072;5.402;2022-10-31T13:27:59;51.33;;;22.30;;
54953;SDS011;40855;51.072;5.402;2022-10-31T13:30:30;38.83;;;21.15;;
54953;SDS011;40855;51.072;5.402;2022-10-31T13:33:05;39.90;;;21.05;;
54953;SDS011;40855;51.072;5.402;2022-10-31T13:38:23;39.17;;;21.98;;
54953;SDS011;40855;51.072;5.402;2022-10-31T13:40:52;40.90;;;22.50;;
54953;SDS011;40855;51.072;5.402;2022-10-31T13:43:45;38.72;;;21.15;;
54953;SDS011;40855;51.072;5.402;2022-10-31T13:46:36;39.72;;;20.33;;
54953;SDS011;40855;51.072;5.402;2022-10-31T13:49:03;38.03;;;20.23;;
54953;SDS011;40855;51.072;5.402;2022-10-31T13:51:46;35.05;;;20.65;;
54953;SDS011;40855;51.072;5.402;2022-10-31T13:54:23;44.97;;;18.65;;
54953;SDS011;40855;51.072;5.402;2022-10-31T13:56:58;39.53;;;18.38;;
54953;SDS011;40855;51.072;5.402;2022-10-31T13:59:25;34.47;;;17.98;;
54953;SDS011;40855;51.072;5.402;2022-10-31T14:01:53;40.55;;;17.02;;
54953;SDS011;40855;51.072;5.402;2022-10-31T14:05:16;42.75;;;18.13;;
54953;SDS011;40855;51.072;5.402;2022-10-31T14:07:13;37.85;;;16.50;;
54953;SDS011;40855;51.072;5.402;2022-10-31T14:09:58;41.65;;;16.77;;
54953;SDS011;40855;51.072;5.402;2022-10-31T14:12:39;37.75;;;15.98;;
54953;SDS011;40855;51.072;5.402;2022-10-31T14:17:45;28.05;;;15.65;;
54953;SDS011;40855;51.072;5.402;2022-10-31T14:22:42;31.63;;;15.70;;
54953;SDS011;40855;51.072;5.402;2022-10-31T14:27:53;38.50;;;14.93;;
54953;SDS011;40855;51.072;5.402;2022-10-31T14:30:19;28.98;;;14.13;;
54953;SDS011;40855;51.072;5.402;2022-10-31T14:32:58;29.63;;;13.30;;
54953;SDS011;40855;51.072;5.402;2022-10-31T14:35:35;36.30;;;13.70;;
54953;SDS011;40855;51.072;5.402;2022-10-31T14:38:23;32.75;;;13.60;;
54953;SDS011;40855;51.072;5.402;2022-10-31T14:43:55;27.05;;;13.70;;
54953;SDS011;40855;51.072;5.402;2022-10-31T14:49:18;31.02;;;13.10;;
54953;SDS011;40855;51.072;5.402;2022-10-31T14:52:05;30.05;;;12.95;;
54953;SDS011;40855;51.072;5.402;2022-10-31T14:54:34;27.83;;;13.00;;
54953;SDS011;40855;51.072;5.402;2022-10-31T14:57:05;35.45;;;13.25;;
54953;SDS011;40855;51.072;5.402;2022-10-31T14:59:35;24.98;;;13.23;;
54953;SDS011;40855;51.072;5.402;2022-10-31T15:02:14;29.30;;;13.13;;
54953;SDS011;40855;51.072;5.402;2022-10-31T15:04:44;28.85;;;12.27;;
54953;SDS011;40855;51.072;5.402;2022-10-31T15:09:41;35.67;;;13.10;;
54953;SDS011;40855;51.072;5.402;2022-10-31T15:12:21;26.02;;;12.90;;
54953;SDS011;40855;51.072;5.402;2022-10-31T15:14:49;22.02;;;12.77;;
54953;SDS011;40855;51.072;5.402;2022-10-31T15:17:15;29.50;;;12.20;;
54953;SDS011;40855;51.072;5.402;2022-10-31T15:19:41;27.38;;;11.98;;
54953;SDS011;40855;51.072;5.402;2022-10-31T15:22:10;27.65;;;11.25;;
54953;SDS011;40855;51.072;5.402;2022-10-31T15:24:48;30.85;;;11.43;;
54953;SDS011;40855;51.072;5.402;2022-10-31T15:27:21;22.75;;;10.65;;
54953;SDS011;40855;51.072;5.402;2022-10-31T15:29:57;24.08;;;10.05;;
54953;SDS011;40855;51.072;5.402;2022-10-31T15:32:23;20.73;;;9.48;;
54953;SDS011;40855;51.072;5.402;2022-10-31T15:34:54;28.63;;;10.25;;
54953;SDS011;40855;51.072;5.402;2022-10-31T15:37:22;23.35;;;10.55;;
54953;SDS011;40855;51.072;5.402;2022-10-31T15:39:50;19.02;;;9.55;;
54953;SDS011;40855;51.072;5.402;2022-10-31T15:47:37;15.35;;;8.43;;
54953;SDS011;40855;51.072;5.402;2022-10-31T15:50:04;20.92;;;9.05;;
54953;SDS011;40855;51.072;5.402;2022-10-31T15:52:43;20.35;;;8.88;;
54953;SDS011;40855;51.072;5.402;2022-10-31T15:55:15;24.05;;;9.07;;
54953;SDS011;40855;51.072;5.402;2022-10-31T15:57:51;20.67;;;8.60;;
54953;SDS011;40855;51.072;5.402;2022-10-31T16:02:50;24.10;;;9.05;;
54953;SDS011;40855;51.072;5.402;2022-10-31T16:05:46;22.27;;;8.70;;
54953;SDS011;40855;51.072;5.402;2022-10-31T16:10:55;23.80;;;8.75;;
54953;SDS011;40855;51.072;5.402;2022-10-31T16:13:26;21.20;;;8.07;;
54953;SDS011;40855;51.072;5.402;2022-10-31T16:15:57;19.30;;;8.18;;
54953;SDS011;40855;51.072;5.402;2022-10-31T16:18:29;28.52;;;8.50;;
54953;SDS011;40855;51.072;5.402;2022-10-31T16:20:59;17.33;;;8.23;;
54953;SDS011;40855;51.072;5.402;2022-10-31T16:23:25;21.08;;;7.40;;
54953;SDS011;40855;51.072;5.402;2022-10-31T16:25:52;23.75;;;8.25;;
54953;SDS011;40855;51.072;5.402;2022-10-31T16:28:20;21.33;;;8.05;;
54953;SDS011;40855;51.072;5.402;2022-10-31T16:30:49;21.75;;;7.88;;
54953;SDS011;40855;51.072;5.402;2022-10-31T16:38:56;19.88;;;8.93;;
54953;SDS011;40855;51.072;5.402;2022-10-31T16:41:22;21.25;;;7.60;;
54953;SDS011;40855;51.072;5.402;2022-10-31T16:43:49;22.40;;;7.88;;
54953;SDS011;40855;51.072;5.402;2022-10-31T16:46:18;21.88;;;8.38;;
54953;SDS011;40855;51.072;5.402;2022-10-31T16:48:50;19.05;;;7.65;;
54953;SDS011;40855;51.072;5.402;2022-10-31T16:51:16;16.90;;;7.43;;
54953;SDS011;40855;51.072;5.402;2022-10-31T16:53:42;20.38;;;7.95;;